Time;durP1;ratioP1;P1;durP2;ratioP2;P2;SDS_P1;SDS_P2;PMS_P1;PMS_P2;Temp;Humidity;BMP_temperature;BMP_pressure;BME280_temperature;BME280_humidity;BME280_pressure;Samples;Min_cycle;Max_cycle;Signal;HPM_P1;HPM_P2
2023/03/09 00:01:47;;;;;;;21.83;12.30;;;;;;;10.40;55.89;100149.25;4936575;29;20066;-83
2023/03/09 00:04:16;;;;;;;24.52;11.68;;;;;;;10.60;55.53;100166.63;4940184;28;20083;-82
2023/03/09 00:06:45;;;;;;;22.73;10.30;;;;;;;10.56;55.25;100157.25;4936957;29;20047;-83
2023/03/09 00:09:12;;;;;;;24.30;11.82;;;;;;;10.58;55.35;100163.28;4954337;28;20047;-83
2023/03/09 00:11:40;;;;;;;23.63;12.45;;;;;;;10.54;55.84;100146.69;4923767;28;20061;-84
2023/03/09 00:14:06;;;;;;;26.15;13.15;;;;;;;10.56;56.06;100154.59;4926244;29;20043;-83
2023/03/09 00:16:32;;;;;;;;;;;;;;;10.66;56.69;100163.28;4937229;29;20388;-83
2023/03/09 00:18:58;;;;;;;28.88;15.07;;;;;;;10.54;57.18;100151.22;4937595;29;20017;-83
2023/03/09 00:21:34;;;;;;;33.55;16.00;;;;;;;10.56;57.50;100162.66;4928869;29;20082;-84
2023/03/09 00:24:19;;;;;;;;;;;;;;;10.55;58.25;100160.94;4919872;29;20049;-83
2023/03/09 00:26:51;;;;;;;41.22;18.67;;;;;;;10.52;58.54;100153.25;4957215;28;20295;-85
2023/03/09 00:29:17;;;;;;;34.05;19.10;;;;;;;10.41;58.76;100141.00;4940210;28;20055;-83
2023/03/09 00:31:44;;;;;;;47.10;24.08;;;;;;;10.34;59.32;100146.22;4948924;28;20165;-84
2023/03/09 00:34:11;;;;;;;52.20;27.10;;;;;;;10.21;60.09;100151.28;4936334;29;20039;-85
2023/03/09 00:36:37;;;;;;;59.55;32.08;;;;;;;10.12;60.64;100155.81;4921558;29;20035;-85
2023/03/09 00:39:04;;;;;;;51.55;28.90;;;;;;;10.10;60.15;100155.13;4931635;29;20043;-85
2023/03/09 00:41:35;;;;;;;51.00;26.13;;;;;;;10.03;59.54;100140.72;4946741;28;20172;-83
2023/03/09 00:44:02;;;;;;;44.25;23.33;;;;;;;9.99;58.91;100151.97;4916131;29;20059;-84
2023/03/09 00:46:29;;;;;;;45.10;21.67;;;;;;;9.92;59.07;100152.63;4909548;29;20081;-84
2023/03/09 00:48:55;;;;;;;44.45;19.50;;;;;;;9.69;59.14;100148.94;4916809;29;20044;-85
2023/03/09 00:51:20;;;;;;;38.97;18.30;;;;;;;9.48;59.67;100130.66;4893009;29;20046;-84
2023/03/09 00:53:46;;;;;;;28.77;17.48;;;;;;;9.43;59.73;100141.88;4922574;29;20043;-84
2023/03/09 00:56:29;;;;;;;31.95;17.33;;;;;;;9.34;60.10;100144.72;4908039;28;20053;-86
2023/03/09 00:58:59;;;;;;;32.53;16.88;;;;;;;9.26;59.84;100133.00;4909833;29;20043;-83
2023/03/09 01:01:26;;;;;;;28.15;16.33;;;;;;;9.35;59.65;100141.91;4903307;29;20100;-87
2023/03/09 01:03:51;;;;;;;30.25;15.75;;;;;;;9.11;60.35;100129.28;4946494;28;20310;-86
2023/03/09 01:06:17;;;;;;;28.05;15.32;;;;;;;9.14;60.04;100149.56;4910903;29;20424;-86
2023/03/09 01:08:45;;;;;;;29.13;15.55;;;;;;;9.07;60.06;100133.28;4904039;28;20174;-89
2023/03/09 01:11:13;;;;;;;25.88;14.73;;;;;;;9.04;60.00;100126.41;4908603;28;20074;-83
2023/03/09 01:13:38;;;;;;;29.67;15.18;;;;;;;8.88;60.15;100104.94;4940249;28;20122;-86
2023/03/09 01:16:04;;;;;;;27.15;15.20;;;;;;;8.96;60.51;100123.69;4921780;28;20047;-86
2023/03/09 01:18:33;;;;;;;30.90;15.20;;;;;;;8.99;60.31;100122.53;4909468;29;20039;-84
2023/03/09 01:20:59;;;;;;;27.85;15.90;;;;;;;8.86;60.61;100126.53;4921991;28;20090;-83
2023/03/09 01:23:24;;;;;;;28.73;15.77;;;;;;;8.72;60.77;100110.25;4926636;29;20067;-88
2023/03/09 01:25:50;;;;;;;27.90;15.45;;;;;;;8.74;60.55;100093.00;4922197;29;21513;-85
2023/03/09 01:28:16;;;;;;;27.40;15.47;;;;;;;8.90;60.66;100127.06;4921841;29;20523;-83
2023/03/09 01:30:41;;;;;;;25.83;14.63;;;;;;;8.90;60.47;100116.34;4924558;29;20047;-82
2023/03/09 01:33:07;;;;;;;27.88;15.50;;;;;;;8.92;60.00;100098.25;4912122;29;20142;-84
2023/03/09 01:35:33;;;;;;;28.50;14.88;;;;;;;8.89;59.69;100111.97;4916978;28;20408;-83
2023/03/09 01:38:01;;;;;;;24.55;14.85;;;;;;;8.99;59.52;100103.75;4918664;29;20093;-83
2023/03/09 01:40:28;;;;;;;32.70;14.07;;;;;;;9.03;59.09;100105.97;4945178;29;20123;-82
2023/03/09 01:43:27;;;;;;;26.48;14.48;;;;;;;8.85;59.63;100102.59;4951636;28;20146;-83
2023/03/09 01:46:27;;;;;;;23.70;14.07;;;;;;;8.96;59.08;100088.00;4940172;28;20473;-85
2023/03/09 01:49:14;;;;;;;27.92;13.95;;;;;;;8.93;58.89;100085.69;4940948;28;20042;-84
2023/03/09 01:52:04;;;;;;;24.02;13.73;;;;;;;8.93;58.84;100070.41;4937641;28;20043;-86
2023/03/09 01:54:49;;;;;;;22.80;13.63;;;;;;;8.97;58.90;100079.00;4926627;29;20142;-83
2023/03/09 01:57:38;;;;;;;24.70;13.57;;;;;;;8.94;58.88;100088.16;4891521;29;20141;-84
2023/03/09 02:00:09;;;;;;;21.80;13.77;;;;;;;8.95;59.07;100079.16;4929507;29;20542;-83
2023/03/09 02:02:40;;;;;;;24.98;14.45;;;;;;;8.91;59.06;100085.00;4909814;29;20064;-85
2023/03/09 02:05:09;;;;;;;30.00;13.70;;;;;;;8.91;59.07;100085.00;4922057;29;20054;-85
2023/03/09 02:07:36;;;;;;;24.35;12.65;;;;;;;8.71;59.22;100065.66;4903866;29;20050;-85
2023/03/09 02:10:04;;;;;;;22.05;13.00;;;;;;;8.73;59.52;100069.03;4906324;28;20043;-88
2023/03/09 02:12:29;;;;;;;27.02;13.43;;;;;;;9.02;58.84;100092.72;4922368;29;20515;-84
2023/03/09 02:14:55;;;;;;;23.95;13.82;;;;;;;9.03;59.13;100103.28;4937819;28;20058;-84
2023/03/09 02:17:22;;;;;;;24.95;13.98;;;;;;;9.00;59.13;100092.06;4905321;29;20062;-85
2023/03/09 02:20:12;;;;;;;22.80;13.63;;;;;;;9.11;58.80;100113.19;4910630;29;20087;-82
2023/03/09 02:22:38;;;;;;;25.02;12.98;;;;;;;9.01;58.37;100099.94;4948235;28;20515;-83
2023/03/09 02:25:24;;;;;;;24.70;13.07;;;;;;;8.87;58.73;100105.91;4929167;29;20055;-83
2023/03/09 02:27:51;;;;;;;24.33;12.75;;;;;;;8.81;58.96;100094.03;4932246;29;20043;-83
2023/03/09 02:30:17;;;;;;;20.08;12.35;;;;;;;8.76;59.20;100090.16;4900150;29;20063;-84
2023/03/09 02:32:45;;;;;;;24.40;13.60;;;;;;;8.74;59.26;100109.06;4922591;29;20045;-84
2023/03/09 02:35:11;;;;;;;23.65;12.40;;;;;;;8.67;59.64;100118.75;4921230;29;20496;-88
2023/03/09 02:37:38;;;;;;;25.02;12.70;;;;;;;8.52;59.79;100105.16;4907919;29;20087;-85
2023/03/09 02:40:28;;;;;;;23.48;12.85;;;;;;;8.41;60.06;100103.59;4922749;28;20214;-86
2023/03/09 02:42:54;;;;;;;22.70;12.35;;;;;;;8.43;60.11;100106.94;4896567;28;20050;-85
2023/03/09 02:45:21;;;;;;;22.35;11.75;;;;;;;8.42;60.44;100101.75;4935818;28;20047;-84
2023/03/09 02:47:47;;;;;;;23.55;11.88;;;;;;;8.50;60.53;100107.16;4924142;28;20039;-87
2023/03/09 02:50:15;;;;;;;24.42;13.00;;;;;;;8.44;60.98;100118.50;4920747;29;20448;-87
2023/03/09 02:52:40;;;;;;;25.90;12.65;;;;;;;8.50;60.99;100117.00;4913980;29;20058;-83
2023/03/09 02:55:07;;;;;;;23.95;12.05;;;;;;;8.51;61.38;100118.69;4915202;29;20047;-85
2023/03/09 02:57:32;;;;;;;23.25;11.85;;;;;;;8.39;61.64;100104.72;4894139;28;20467;-82
2023/03/09 02:59:58;;;;;;;22.52;12.40;;;;;;;8.48;61.61;100114.50;4894433;29;20051;-82
2023/03/09 03:02:25;;;;;;;22.33;11.98;;;;;;;8.43;61.61;100108.78;4928365;29;20058;-83
2023/03/09 03:04:53;;;;;;;22.02;11.48;;;;;;;8.58;61.63;100111.69;4930252;29;20054;-83
2023/03/09 03:07:18;;;;;;;23.38;12.48;;;;;;;8.60;61.07;100107.84;4926978;29;20035;-82
2023/03/09 03:09:44;;;;;;;25.00;12.98;;;;;;;8.59;61.32;100108.88;4926825;29;20503;-84
2023/03/09 03:12:10;;;;;;;21.58;12.40;;;;;;;8.67;61.15;100113.41;4923183;29;20431;-84
2023/03/09 03:14:37;;;;;;;23.60;12.90;;;;;;;8.72;61.22;100112.91;4939676;28;20557;-86
2023/03/09 03:17:03;;;;;;;24.30;13.25;;;;;;;8.64;61.46;100111.06;4903324;29;22283;-82
2023/03/09 03:19:32;;;;;;;27.25;13.98;;;;;;;8.74;61.10;100100.19;4921111;29;20114;-82
2023/03/09 03:21:58;;;;;;;22.42;14.07;;;;;;;8.72;61.24;100100.34;4947774;28;20430;-90
2023/03/09 03:24:23;;;;;;;24.50;13.40;;;;;;;8.64;61.75;100097.66;4919886;29;20110;-85
2023/03/09 03:26:48;;;;;;;24.35;13.95;;;;;;;8.87;61.44;100113.97;4908986;28;20047;-84
2023/03/09 03:29:14;;;;;;;26.38;14.63;;;;;;;8.78;61.91;100117.63;4894522;29;20107;-84
2023/03/09 03:31:42;;;;;;;28.00;15.60;;;;;;;8.69;61.86;100106.06;4912244;29;20057;-82
2023/03/09 03:34:10;;;;;;;28.30;15.02;;;;;;;8.82;61.76;100116.28;4945729;29;20121;-85
2023/03/09 03:36:37;;;;;;;28.20;14.82;;;;;;;8.57;62.27;100092.09;4930192;29;20054;-83
2023/03/09 03:39:03;;;;;;;31.35;16.95;;;;;;;8.74;61.89;100109.06;4932545;29;20044;-85
2023/03/09 03:41:28;;;;;;;;;;;;;;;8.78;61.70;100113.13;4929099;29;20050;-82
2023/03/09 03:43:57;;;;;;;33.58;15.27;;;;;;;8.63;62.00;100110.19;4917766;29;19914;-83
2023/03/09 03:46:25;;;;;;;33.63;16.00;;;;;;;8.51;62.19;100092.75;4946208;28;20050;-84
2023/03/09 03:48:50;;;;;;;27.08;14.45;;;;;;;8.56;62.17;100101.13;4944009;28;20046;-82
2023/03/09 03:51:16;;;;;;;24.30;12.10;;;;;;;8.55;63.33;100112.84;4925436;28;20043;-84
2023/03/09 03:53:42;;;;;;;19.42;11.52;;;;;;;8.63;63.27;100117.41;4955408;28;20507;-83
2023/03/09 03:56:09;;;;;;;21.65;10.98;;;;;;;8.61;64.04;100112.19;4966445;28;20050;-83
2023/03/09 03:58:35;;;;;;;16.05;10.20;;;;;;;8.37;65.02;100083.44;4947890;28;20483;-82
2023/03/09 04:01:01;;;;;;;16.23;9.18;;;;;;;8.56;65.53;100097.63;4930506;28;20472;-87
2023/03/09 04:03:27;;;;;;;16.30;8.07;;;;;;;8.65;65.66;100084.09;4967453;28;20043;-84
2023/03/09 04:05:54;;;;;;;19.80;8.85;;;;;;;8.84;65.00;100100.88;4933406;28;20121;-86
2023/03/09 04:08:22;;;;;;;14.63;7.32;;;;;;;8.92;65.35;100100.94;4935067;28;20545;-82
2023/03/09 04:10:47;;;;;;;18.58;8.02;;;;;;;8.97;65.11;100093.22;4946781;28;20051;-83
2023/03/09 04:13:14;;;;;;;15.17;7.67;;;;;;;9.13;64.97;100094.25;4928666;28;22060;-83
2023/03/09 04:15:40;;;;;;;11.82;7.70;;;;;;;9.21;64.61;100088.91;4941917;28;20667;-83
2023/03/09 04:18:05;;;;;;;13.53;7.90;;;;;;;9.43;64.16;100096.28;4934884;28;20054;-84
2023/03/09 04:20:33;;;;;;;16.30;8.38;;;;;;;9.46;64.13;100103.19;4945166;28;20298;-83
2023/03/09 04:22:58;;;;;;;17.13;8.60;;;;;;;9.36;63.81;100081.84;4932473;29;20607;-83
2023/03/09 04:25:24;;;;;;;12.80;8.40;;;;;;;9.48;63.73;100093.09;4928398;28;20047;-84
2023/03/09 04:27:51;;;;;;;15.83;9.13;;;;;;;9.35;63.63;100069.47;4942508;28;20070;-83
2023/03/09 04:30:20;;;;;;;14.18;8.90;;;;;;;9.31;63.88;100070.78;4935295;28;20302;-83
2023/03/09 04:32:47;;;;;;;16.30;9.32;;;;;;;9.52;63.63;100089.06;4945242;28;20134;-85
2023/03/09 04:35:13;;;;;;;20.73;9.60;;;;;;;9.41;63.93;100068.81;4967021;28;20106;-81
2023/03/09 04:37:39;;;;;;;18.48;10.38;;;;;;;9.50;63.69;100073.16;4944262;28;20043;-84
2023/03/09 04:40:07;;;;;;;18.20;10.50;;;;;;;9.37;63.87;100058.56;4938055;28;20066;-86
2023/03/09 04:42:33;;;;;;;19.67;10.32;;;;;;;9.47;63.81;100065.44;4940922;28;20039;-85
2023/03/09 04:44:58;;;;;;;16.40;9.90;;;;;;;9.41;63.94;100057.22;4925272;28;20431;-84
2023/03/09 04:47:24;;;;;;;19.83;10.70;;;;;;;9.49;63.73;100059.91;4939831;28;20373;-88
2023/03/09 04:49:54;;;;;;;17.60;9.70;;;;;;;9.47;63.85;100060.06;4940787;28;20049;-84
2023/03/09 04:52:20;;;;;;;17.48;9.93;;;;;;;9.49;63.71;100044.63;4942052;28;20071;-84
2023/03/09 04:54:46;;;;;;;16.85;9.95;;;;;;;9.49;63.55;100044.63;4941694;28;20066;-83
2023/03/09 04:57:14;;;;;;;17.02;9.93;;;;;;;9.75;63.38;100074.97;4942858;28;20073;-86
2023/03/09 04:59:39;;;;;;;16.67;9.45;;;;;;;9.82;63.11;100071.44;4965606;28;20066;-87
2023/03/09 05:02:08;;;;;;;16.50;9.00;;;;;;;9.85;62.75;100063.03;4937512;28;20049;-84
2023/03/09 05:04:36;;;;;;;14.80;8.77;;;;;;;9.90;62.68;100075.94;4948698;28;20054;-83
2023/03/09 05:07:03;;;;;;;15.63;8.27;;;;;;;9.94;62.54;100059.31;4938731;28;20047;-82
2023/03/09 05:09:28;;;;;;;15.55;7.90;;;;;;;10.10;62.13;100074.56;4965842;28;20050;-82
2023/03/09 05:11:56;;;;;;;19.92;9.00;;;;;;;10.18;61.97;100067.50;4937477;28;20047;-83
2023/03/09 05:14:21;;;;;;;13.73;8.07;;;;;;;10.26;61.60;100068.31;4951167;28;20504;-85
2023/03/09 05:16:51;;;;;;;14.82;8.25;;;;;;;10.33;61.49;100079.25;4936044;28;20039;-83
2023/03/09 05:19:18;;;;;;;14.45;8.27;;;;;;;10.41;61.20;100081.03;4932907;28;20047;-83
2023/03/09 05:21:44;;;;;;;17.15;8.55;;;;;;;10.37;60.88;100058.22;4948581;28;20053;-86
2023/03/09 05:24:11;;;;;;;24.35;14.18;;;;;;;10.54;60.80;100084.84;4937362;28;20027;-88
2023/03/09 05:26:37;;;;;;;34.05;17.63;;;;;;;10.65;60.12;100078.28;4966375;28;20047;-83
2023/03/09 05:29:03;;;;;;;24.83;13.38;;;;;;;10.64;60.37;100081.94;4949965;28;20492;-86
2023/03/09 05:31:28;;;;;;;21.77;12.13;;;;;;;10.88;59.58;100077.44;4950143;28;20129;-85
2023/03/09 05:33:54;;;;;;;26.13;13.93;;;;;;;10.86;59.45;100069.56;4935389;28;20038;-85
2023/03/09 05:36:26;;;;;;;35.97;17.25;;;;;;;11.05;59.04;100084.44;4946664;28;20094;-85
2023/03/09 05:38:52;;;;;;;35.67;19.77;;;;;;;11.08;58.41;100067.91;4947322;28;20089;-86
2023/03/09 05:41:20;;;;;;;47.63;21.02;;;;;;;11.19;57.81;100072.88;4929273;28;20043;-86
2023/03/09 05:43:46;;;;;;;41.58;21.20;;;;;;;11.25;57.38;100068.63;4921187;28;20469;-85
2023/03/09 05:46:14;;;;;;;59.47;21.70;;;;;;;11.26;57.04;100054.19;4950048;28;20095;-84
2023/03/09 05:48:40;;;;;;;45.15;19.90;;;;;;;11.19;57.21;100069.34;4950447;28;20070;-85
2023/03/09 05:51:10;;;;;;;48.67;19.33;;;;;;;10.95;57.94;100067.66;4947243;28;20075;-86
2023/03/09 05:53:37;;;;;;;44.55;20.05;;;;;;;10.85;58.50;100072.44;4952137;28;20047;-84
2023/03/09 05:56:06;;;;;;;36.72;17.80;;;;;;;10.82;58.59;100075.50;4950259;28;20058;-84
2023/03/09 05:58:34;;;;;;;28.75;15.00;;;;;;;10.97;58.65;100084.47;4933492;28;20050;-84
2023/03/09 06:01:02;;;;;;;29.88;14.25;;;;;;;11.05;58.18;100068.28;4945825;28;20103;-83
2023/03/09 06:03:28;;;;;;;27.42;11.40;;;;;;;11.24;57.81;100093.03;4923885;28;20039;-86
2023/03/09 06:06:05;;;;;;;24.88;11.02;;;;;;;11.41;57.56;100078.44;4948607;28;20085;-86
2023/03/09 06:08:34;;;;;;;28.70;11.05;;;;;;;11.60;56.90;100079.78;4951492;28;20310;-86
2023/03/09 06:11:03;;;;;;;23.73;11.50;;;;;;;11.75;55.82;100067.22;4948571;28;20046;-83
2023/03/09 06:13:32;;;;;;;26.15;11.15;;;;;;;11.89;55.94;100076.34;4932033;29;20061;-85
2023/03/09 06:15:57;;;;;;;26.20;11.25;;;;;;;12.11;56.20;100074.63;4919944;28;20038;-87
2023/03/09 06:18:24;;;;;;;22.02;10.80;;;;;;;12.28;55.26;100075.25;4933370;28;20051;-89
2023/03/09 06:20:49;;;;;;;24.13;10.30;;;;;;;12.81;54.18;100075.94;4960844;28;20035;-84
2023/03/09 06:23:15;;;;;;;27.42;9.32;;;;;;;12.86;53.18;100073.50;4961643;28;20325;-84
2023/03/09 06:25:40;;;;;;;18.38;9.07;;;;;;;13.14;52.46;100063.84;4941107;28;20050;-83
2023/03/09 06:28:06;;;;;;;17.80;8.55;;;;;;;13.39;51.51;100073.25;4946296;28;20392;-84
2023/03/09 06:30:32;;;;;;;21.02;9.25;;;;;;;14.02;50.09;100070.63;4930344;28;20534;-85
2023/03/09 06:32:57;;;;;;;20.50;9.40;;;;;;;14.57;48.73;100068.06;4965837;28;20269;-85
2023/03/09 06:35:24;;;;;;;26.35;13.68;;;;;;;15.15;47.28;100063.03;4932243;28;20050;-84
2023/03/09 06:37:50;;;;;;;33.03;14.43;;;;;;;15.68;46.04;100072.25;4946409;28;20055;-84
2023/03/09 06:40:15;;;;;;;45.58;18.17;;;;;;;16.58;44.44;100070.66;4947705;28;20035;-82
2023/03/09 06:42:41;;;;;;;38.80;19.88;;;;;;;17.26;42.09;100044.84;4947936;28;20078;-88
2023/03/09 06:45:07;;;;;;;;;;;;;;;17.96;41.35;100069.16;4925166;28;20487;-84
2023/03/09 06:47:33;;;;;;;39.15;18.30;;;;;;;17.82;40.42;100046.72;4955640;28;20005;-83
2023/03/09 06:50:00;;;;;;;;;;;;;;;17.80;40.45;100065.09;4947424;28;20474;-85
2023/03/09 06:52:25;;;;;;;42.25;17.42;;;;;;;18.00;39.84;100048.59;4951087;28;19917;-85
2023/03/09 06:54:51;;;;;;;;;;;;;;;18.66;38.88;100059.81;4932076;28;20058;-86
2023/03/09 06:57:17;;;;;;;40.03;18.83;;;;;;;19.47;37.42;100060.38;4963829;28;19922;-87
2023/03/09 06:59:43;;;;;;;;;;;;;;;19.53;37.02;100065.72;4957125;28;20042;-84
2023/03/09 07:02:11;;;;;;;34.05;17.73;;;;;;;20.39;35.76;100059.81;4959404;28;19925;-86
2023/03/09 07:04:39;;;;;;;40.47;17.23;;;;;;;20.75;35.08;100080.56;4924811;28;20495;-85
2023/03/09 07:07:04;;;;;;;40.63;17.45;;;;;;;21.14;34.02;100069.84;4962154;28;20054;-84
2023/03/09 07:09:31;;;;;;;48.30;18.05;;;;;;;20.97;33.88;100071.69;4950845;28;20039;-85
2023/03/09 07:11:59;;;;;;;41.05;18.88;;;;;;;20.62;34.63;100080.81;4951951;28;20360;-85
2023/03/09 07:14:26;;;;;;;38.72;18.77;;;;;;;20.52;34.91;100081.41;4946494;28;20043;-87
2023/03/09 07:16:52;;;;;;;36.67;19.27;;;;;;;21.04;34.34;100077.81;4963616;28;20133;-84
2023/03/09 07:19:20;;;;;;;44.67;19.23;;;;;;;21.73;33.26;100080.47;4934354;28;20038;-85
2023/03/09 07:21:45;;;;;;;48.97;19.42;;;;;;;21.67;33.01;100092.38;4965725;28;20138;-84
2023/03/09 07:24:11;;;;;;;50.08;20.25;;;;;;;21.20;33.44;100090.72;4948448;28;20117;-88
2023/03/09 07:26:38;;;;;;;42.78;19.55;;;;;;;21.32;33.14;100089.81;4946668;28;20568;-85
2023/03/09 07:29:03;;;;;;;45.22;18.85;;;;;;;21.37;33.05;100082.53;4947857;28;20046;-86
2023/03/09 07:31:30;;;;;;;51.33;17.65;;;;;;;21.77;32.87;100094.44;4948790;28;20456;-87
2023/03/09 07:33:57;;;;;;;41.38;17.15;;;;;;;21.94;32.32;100081.59;4936788;28;20089;-85
2023/03/09 07:36:23;;;;;;;38.38;17.80;;;;;;;22.29;32.33;100102.41;4950113;28;20057;-86
2023/03/09 07:38:50;;;;;;;36.70;16.80;;;;;;;22.08;32.16;100096.59;4952837;28;20051;-85
2023/03/09 07:41:16;;;;;;;33.80;16.35;;;;;;;22.35;31.46;100109.59;4933997;28;20034;-86
2023/03/09 07:43:44;;;;;;;35.15;17.08;;;;;;;22.77;31.08;100095.38;4935003;28;20066;-86
2023/03/09 07:46:12;;;;;;;32.50;17.45;;;;;;;23.75;30.11;100091.78;4947508;28;20050;-85
2023/03/09 07:48:39;;;;;;;32.42;16.90;;;;;;;24.58;28.33;100075.59;4950879;28;20035;-89
2023/03/09 07:51:08;;;;;;;37.30;17.42;;;;;;;25.51;27.22;100093.16;4942743;28;20499;-88
2023/03/09 07:53:34;;;;;;;29.48;16.27;;;;;;;26.22;26.38;100070.31;4939329;28;20156;-86
2023/03/09 07:56:03;;;;;;;35.30;16.70;;;;;;;27.06;24.80;100075.22;4929433;28;20043;-86
2023/03/09 07:58:33;;;;;;;27.77;13.25;;;;;;;27.01;24.40;100067.78;4950535;28;20122;-83
2023/03/09 08:00:59;;;;;;;20.15;12.40;;;;;;;25.30;25.88;100084.06;4944665;28;20183;-85
2023/03/09 08:03:25;;;;;;;23.15;10.93;;;;;;;25.70;25.56;100063.97;4950049;28;20049;-83
2023/03/09 08:05:54;;;;;;;19.50;10.57;;;;;;;27.41;24.54;100081.63;4935428;28;20043;-84
2023/03/09 08:08:20;;;;;;;20.30;11.35;;;;;;;27.82;23.52;100089.59;4938056;28;20053;-86
2023/03/09 08:10:50;;;;;;;28.77;12.80;;;;;;;28.45;23.26;100097.00;4948332;28;20042;-86
2023/03/09 08:13:22;;;;;;;25.70;11.50;;;;;;;29.88;21.94;100079.25;4942591;28;20027;-87
2023/03/09 08:15:59;;;;;;;;;;;;;;;;;;;;;
2023/03/09 08:18:25;;;;;;;28.60;9.48;;;;;;;30.03;21.19;100085.63;4947312;28;20133;-87
2023/03/09 08:20:57;;;;;;;19.17;9.07;;;;;;;30.80;20.01;100084.97;4935082;28;20137;-95
2023/03/09 08:24:24;;;;;;;;;;;;;;;;;;;;;
2023/03/09 08:31:58;;;;;;;10.02;5.63;;;;;;;33.57;16.39;100061.72;4977488;28;20070;-91
2023/03/09 08:34:37;;;;;;;13.68;6.00;;;;;;;34.19;15.19;100057.66;4942197;28;20496;-92
2023/03/09 08:37:03;;;;;;;13.35;6.00;;;;;;;34.92;14.80;100059.41;4975441;28;20058;-93
2023/03/09 08:39:29;;;;;;;14.85;5.72;;;;;;;35.36;14.37;100054.31;4974504;28;20034;-88
2023/03/09 08:42:00;;;;;;;12.38;4.90;;;;;;;36.09;13.66;100047.34;4937239;28;20469;-90
2023/03/09 08:44:26;;;;;;;13.50;5.55;;;;;;;36.65;13.35;100081.22;4948565;28;20035;-88
2023/03/09 08:46:52;;;;;;;12.02;4.72;;;;;;;37.65;12.56;100066.66;4966465;28;20503;-85
2023/03/09 08:49:20;;;;;;;14.15;5.40;;;;;;;38.22;12.32;100070.16;4950461;28;20054;-86
2023/03/09 08:51:51;;;;;;;14.82;5.05;;;;;;;39.34;11.23;100063.16;4950571;28;20416;-89
2023/03/09 08:54:16;;;;;;;9.65;4.25;;;;;;;39.60;10.84;100050.44;4969923;28;20038;-84
2023/03/09 08:56:42;;;;;;;9.90;4.80;;;;;;;40.29;10.74;100047.66;4935525;28;20043;-86
2023/03/09 08:59:09;;;;;;;12.82;4.70;;;;;;;40.49;9.95;100054.03;4936505;28;20111;-86
2023/03/09 09:01:37;;;;;;;10.77;4.13;;;;;;;39.77;10.21;100037.88;4954372;28;20436;-86
2023/03/09 09:04:33;;;;;;;10.90;4.03;;;;;;;39.53;10.65;100056.72;4955247;28;20126;-87
2023/03/09 09:07:30;;;;;;;8.15;4.20;;;;;;;40.18;9.67;100029.75;4939224;28;20087;-89
2023/03/09 09:09:59;;;;;;;7.63;4.30;;;;;;;41.54;9.31;100043.00;4954069;28;20046;-87
2023/03/09 09:12:32;;;;;;;13.25;4.00;;;;;;;41.28;8.90;100021.31;4938017;28;20053;-88
2023/03/09 09:15:43;;;;;;;4.63;2.80;;;;;;;39.96;9.43;100012.50;4969342;28;20051;-87
2023/03/09 09:18:08;;;;;;;10.45;4.43;;;;;;;40.71;9.48;100024.19;4941325;28;20489;-87
2023/03/09 09:20:35;;;;;;;7.78;3.60;;;;;;;41.89;8.42;100038.91;4950770;28;20031;-86
2023/03/09 09:23:02;;;;;;;6.78;3.28;;;;;;;42.78;8.50;100016.22;4927935;28;20476;-87
2023/03/09 09:25:28;;;;;;;7.15;3.28;;;;;;;42.73;7.75;100016.59;4952699;28;20427;-87
2023/03/09 09:27:54;;;;;;;9.32;3.60;;;;;;;42.78;8.27;100016.22;4938624;28;20035;-88
2023/03/09 09:30:22;;;;;;;7.00;3.08;;;;;;;42.75;7.69;100005.69;4936013;28;20055;-84
2023/03/09 09:32:48;;;;;;;6.47;2.90;;;;;;;42.75;8.20;100002.88;4954171;28;20134;-88
2023/03/09 09:35:15;;;;;;;5.93;2.65;;;;;;;43.02;7.93;100016.78;4950335;28;20126;-86
2023/03/09 09:37:41;;;;;;;7.65;2.97;;;;;;;43.57;7.31;100003.19;4922762;28;20069;-87
2023/03/09 09:40:11;;;;;;;10.02;4.85;;;;;;;42.75;8.22;100008.53;4967670;28;20047;-86
2023/03/09 09:42:43;;;;;;;10.15;3.90;;;;;;;40.06;9.63;100009.09;4971067;28;20407;-83
2023/03/09 09:45:23;;;;;;;7.07;3.05;;;;;;;40.96;8.94;100015.28;4957788;28;20087;-86
2023/03/09 09:47:53;;;;;;;9.82;3.50;;;;;;;41.54;8.79;100004.31;4982726;28;20059;-86
2023/03/09 09:50:51;;;;;;;7.43;3.15;;;;;;;41.00;8.84;99983.13;4940281;29;20043;-87
2023/03/09 09:53:47;;;;;;;6.47;3.08;;;;;;;40.89;9.16;99982.97;4974012;28;20500;-87
2023/03/09 09:56:15;;;;;;;8.88;3.30;;;;;;;41.30;9.26;99957.72;4946259;28;20047;-87
2023/03/09 09:58:54;;;;;;;14.68;4.88;;;;;;;41.78;8.86;99973.13;4940098;28;20121;-87
2023/03/09 10:01:27;;;;;;;7.10;3.63;;;;;;;42.80;8.74;99977.09;4967843;28;20031;-90
2023/03/09 10:03:56;;;;;;;7.97;3.70;;;;;;;43.30;8.12;99965.19;4923493;28;20483;-89
2023/03/09 10:06:23;;;;;;;9.23;3.40;;;;;;;42.44;7.92;99988.19;4956654;28;20051;-86
2023/03/09 10:09:27;;;;;;;7.53;3.42;;;;;;;42.24;8.68;99983.97;4946707;28;20105;-90
2023/03/09 10:12:07;;;;;;;8.35;4.68;;;;;;;41.11;8.81;99969.13;4941387;28;20835;-86
2023/03/09 10:14:42;;;;;;;6.03;3.30;;;;;;;41.49;8.77;99976.44;4955713;28;20066;-86
2023/03/09 10:17:26;;;;;;;6.22;3.75;;;;;;;40.32;9.94;99982.19;4962801;28;20031;-87
2023/03/09 10:20:16;;;;;;;5.00;3.50;;;;;;;39.81;10.16;99974.88;4936539;28;20158;-86
2023/03/09 10:22:48;;;;;;;7.70;4.00;;;;;;;40.76;9.31;99970.31;4943588;28;20051;-88
2023/03/09 10:25:19;;;;;;;9.63;3.40;;;;;;;40.42;9.33;99966.63;4964459;28;20098;-89
2023/03/09 10:27:49;;;;;;;7.20;3.13;;;;;;;40.17;9.50;99971.84;4946262;28;20111;-89
2023/03/09 10:30:44;;;;;;;5.72;3.30;;;;;;;40.70;8.65;99954.97;4970841;28;20039;-88
2023/03/09 10:33:36;;;;;;;7.47;2.90;;;;;;;40.41;9.08;99946.06;4951084;28;20046;-87
2023/03/09 10:36:05;;;;;;;6.35;2.80;;;;;;;39.84;9.41;99948.81;4959780;28;20493;-88
2023/03/09 10:38:33;;;;;;;4.70;2.88;;;;;;;38.63;10.45;99938.78;4952467;28;20039;-89
2023/03/09 10:40:59;;;;;;;9.60;3.28;;;;;;;38.75;11.60;99933.03;4953182;28;20043;-88
2023/03/09 10:43:30;;;;;;;6.95;3.08;;;;;;;38.06;11.31;99924.25;4947101;28;20040;-91
2023/03/09 10:46:16;;;;;;;9.90;3.10;;;;;;;35.62;12.84;99911.53;4946569;28;20045;-87
2023/03/09 10:48:43;;;;;;;6.80;3.20;;;;;;;35.99;12.77;99902.31;4952931;28;20042;-88
2023/03/09 10:51:46;;;;;;;6.03;3.38;;;;;;;36.37;12.81;99906.75;4966688;28;20148;-88
2023/03/09 10:54:36;;;;;;;6.18;3.60;;;;;;;36.01;13.25;99905.59;4965878;28;20527;-92
2023/03/09 10:57:02;;;;;;;6.63;3.03;;;;;;;35.98;13.17;99883.94;4969567;28;20148;-88
2023/03/09 10:59:30;;;;;;;8.52;4.00;;;;;;;36.20;13.18;99872.28;4964999;28;20039;-89
2023/03/09 11:01:59;;;;;;;8.52;3.53;;;;;;;34.54;14.51;99856.56;4963552;28;20054;-90
2023/03/09 11:04:41;;;;;;;7.82;3.47;;;;;;;32.15;16.85;99884.94;4935238;28;20042;-91
2023/03/09 11:07:18;;;;;;;6.70;3.30;;;;;;;32.04;17.35;99866.94;4964501;28;20043;-88
2023/03/09 11:09:52;;;;;;;7.43;3.30;;;;;;;30.72;18.71;99863.78;4941259;28;20035;-86
2023/03/09 11:12:21;;;;;;;;;;;;;;;30.70;19.09;99854.94;4943522;28;20046;-90
2023/03/09 11:14:50;;;;;;;5.57;3.40;;;;;;;30.74;18.91;99844.84;4944223;28;19938;-89
2023/03/09 11:17:36;;;;;;;7.55;3.33;;;;;;;31.15;17.84;99865.22;4945790;28;20054;-86
2023/03/09 11:20:22;;;;;;;6.40;3.55;;;;;;;30.42;19.05;99860.59;4944670;28;20141;-86
2023/03/09 11:22:59;;;;;;;7.30;3.70;;;;;;;30.13;19.41;99841.53;4972535;28;20038;-89
2023/03/09 11:25:52;;;;;;;7.32;3.35;;;;;;;29.69;19.60;99859.66;4950897;28;20050;-90
2023/03/09 11:28:55;;;;;;;6.60;2.85;;;;;;;29.24;20.36;99853.84;4967363;28;20588;-89
2023/03/09 11:31:25;;;;;;;4.80;3.08;;;;;;;29.28;19.58;99837.47;4937826;28;20425;-90
2023/03/09 11:33:55;;;;;;;6.32;2.90;;;;;;;29.24;19.90;99815.09;4933739;29;20043;-90
2023/03/09 11:36:44;;;;;;;5.50;2.92;;;;;;;28.71;20.15;99827.34;4934974;29;20487;-89
2023/03/09 11:39:28;;;;;;;7.75;3.28;;;;;;;29.94;19.26;99822.28;4898773;29;20536;-95
2023/03/09 11:42:01;;;;;;;6.30;2.85;;;;;;;30.41;18.03;99808.22;4951826;28;20108;-90
2023/03/09 11:44:39;;;;;;;5.30;2.83;;;;;;;30.80;17.42;99809.47;4948163;29;20051;-90